Terminal Aerodrome Forecast
Issued by NWS

Home | Current Version | Previous Version | Text Only | Print | Product List | Glossary On
Versions: 1 2 3 4 5 6 7 8 9 10 11 12 13 14 15 16 17 18 19 20 21 22
033
FTUS42 KFFC 242328
TAFFTY
TAF
KFTY 242328Z 2500/2524 16007KT P6SM SKC
     FM250500 20005KT P6SM BKN035
     FM250900 24007KT P6SM BKN015 PROB30 2509/2513 5SM -SHRA BR
      BKN009
     FM251300 29010G18KT P6SM SCT030
     FM251600 30012G22KT P6SM FEW040
     FM251800 31014G24KT P6SM SKC=

USA.gov is the U.S. government's official web portal to all federal, state and local government web resources and services.